sensor_id;sensor_type;location;lat;lon;timestamp;temperature;humidity
69281;SHT31;56392;51.082;17.080;2023-03-01T00:02:40;-1.19;75.18
69281;SHT31;56392;51.082;17.080;2023-03-01T00:08:04;-1.23;75.43
69281;SHT31;56392;51.082;17.080;2023-03-01T00:13:28;-1.26;75.17
69281;SHT31;56392;51.082;17.080;2023-03-01T00:18:51;-1.23;74.78
69281;SHT31;56392;51.082;17.080;2023-03-01T00:24:16;-1.32;75.06
69281;SHT31;56392;51.082;17.080;2023-03-01T00:29:39;-1.33;74.90
69281;SHT31;56392;51.082;17.080;2023-03-01T00:35:02;-1.36;74.99
69281;SHT31;56392;51.082;17.080;2023-03-01T00:40:28;-1.36;75.04
69281;SHT31;56392;51.082;17.080;2023-03-01T00:45:51;-1.41;75.05
69281;SHT31;56392;51.082;17.080;2023-03-01T00:51:16;-1.34;75.17
69281;SHT31;56392;51.082;17.080;2023-03-01T00:56:40;-1.46;75.32
69281;SHT31;56392;51.082;17.080;2023-03-01T01:02:03;-1.51;75.10
69281;SHT31;56392;51.082;17.080;2023-03-01T01:07:27;-1.55;75.43
69281;SHT31;56392;51.082;17.080;2023-03-01T01:12:51;-1.54;75.29
69281;SHT31;56392;51.082;17.080;2023-03-01T01:18:14;-1.60;75.03
69281;SHT31;56392;51.082;17.080;2023-03-01T01:23:38;-1.64;75.44
69281;SHT31;56392;51.082;17.080;2023-03-01T01:29:04;-1.61;75.22
69281;SHT31;56392;51.082;17.080;2023-03-01T01:34:27;-1.64;75.12
69281;SHT31;56392;51.082;17.080;2023-03-01T01:39:51;-1.70;74.98
69281;SHT31;56392;51.082;17.080;2023-03-01T01:45:40;-1.85;75.94
69281;SHT31;56392;51.082;17.080;2023-03-01T01:51:04;-1.75;75.42
69281;SHT31;56392;51.082;17.080;2023-03-01T01:56:27;-1.72;75.04
69281;SHT31;56392;51.082;17.080;2023-03-01T02:01:53;-1.75;74.99
69281;SHT31;56392;51.082;17.080;2023-03-01T02:07:18;-1.82;75.33
69281;SHT31;56392;51.082;17.080;2023-03-01T02:12:42;-1.85;74.77
69281;SHT31;56392;51.082;17.080;2023-03-01T02:18:08;-1.94;75.35
69281;SHT31;56392;51.082;17.080;2023-03-01T02:23:33;-1.95;75.41
69281;SHT31;56392;51.082;17.080;2023-03-01T02:28:58;-1.98;75.78
69281;SHT31;56392;51.082;17.080;2023-03-01T02:34:23;-2.03;75.40
69281;SHT31;56392;51.082;17.080;2023-03-01T02:39:51;-2.10;75.37
69281;SHT31;56392;51.082;17.080;2023-03-01T02:45:17;-2.15;75.84
69281;SHT31;56392;51.082;17.080;2023-03-01T02:50:52;-2.15;76.29
69281;SHT31;56392;51.082;17.080;2023-03-01T02:56:18;-2.23;76.07
69281;SHT31;56392;51.082;17.080;2023-03-01T03:01:43;-2.26;76.14
69281;SHT31;56392;51.082;17.080;2023-03-01T03:07:08;-2.22;76.38
69281;SHT31;56392;51.082;17.080;2023-03-01T03:12:31;-2.21;76.12
69281;SHT31;56392;51.082;17.080;2023-03-01T03:17:57;-2.21;75.74
69281;SHT31;56392;51.082;17.080;2023-03-01T03:23:21;-2.25;75.54
69281;SHT31;56392;51.082;17.080;2023-03-01T03:28:44;-2.33;75.16
69281;SHT31;56392;51.082;17.080;2023-03-01T03:34:09;-2.42;75.33
69281;SHT31;56392;51.082;17.080;2023-03-01T03:39:39;-2.43;75.60
69281;SHT31;56392;51.082;17.080;2023-03-01T03:45:03;-2.40;75.63
69281;SHT31;56392;51.082;17.080;2023-03-01T03:50:27;-2.43;75.60
69281;SHT31;56392;51.082;17.080;2023-03-01T03:55:51;-2.47;75.46
69281;SHT31;56392;51.082;17.080;2023-03-01T04:01:14;-2.56;75.63
69281;SHT31;56392;51.082;17.080;2023-03-01T04:06:39;-2.54;75.97
69281;SHT31;56392;51.082;17.080;2023-03-01T04:12:03;-2.52;75.99
69281;SHT31;56392;51.082;17.080;2023-03-01T04:17:26;-2.56;75.97
69281;SHT31;56392;51.082;17.080;2023-03-01T04:22:52;-2.54;76.20
69281;SHT31;56392;51.082;17.080;2023-03-01T04:28:15;-2.54;75.95
69281;SHT31;56392;51.082;17.080;2023-03-01T04:33:39;-2.64;75.76
69281;SHT31;56392;51.082;17.080;2023-03-01T04:39:04;-2.74;76.37
69281;SHT31;56392;51.082;17.080;2023-03-01T04:44:33;-2.70;76.25
69281;SHT31;56392;51.082;17.080;2023-03-01T04:49:57;-2.67;76.06
69281;SHT31;56392;51.082;17.080;2023-03-01T04:55:21;-2.74;76.15
69281;SHT31;56392;51.082;17.080;2023-03-01T05:00:47;-2.78;76.76
69281;SHT31;56392;51.082;17.080;2023-03-01T05:06:11;-2.76;76.76
69281;SHT31;56392;51.082;17.080;2023-03-01T05:11:36;-2.81;76.70
69281;SHT31;56392;51.082;17.080;2023-03-01T05:17:00;-2.83;76.35
69281;SHT31;56392;51.082;17.080;2023-03-01T05:22:25;-2.84;76.42
69281;SHT31;56392;51.082;17.080;2023-03-01T05:27:50;-2.94;76.60
69281;SHT31;56392;51.082;17.080;2023-03-01T05:33:13;-2.94;76.58
69281;SHT31;56392;51.082;17.080;2023-03-01T05:38:36;-2.91;76.79
69281;SHT31;56392;51.082;17.080;2023-03-01T05:44:01;-2.89;76.59
69281;SHT31;56392;51.082;17.080;2023-03-01T05:49:26;-2.95;76.41
69281;SHT31;56392;51.082;17.080;2023-03-01T05:54:49;-2.95;76.99
69281;SHT31;56392;51.082;17.080;2023-03-01T06:00:15;-2.91;77.22
69281;SHT31;56392;51.082;17.080;2023-03-01T06:05:39;-2.88;77.11
69281;SHT31;56392;51.082;17.080;2023-03-01T06:11:03;-2.88;77.27
69281;SHT31;56392;51.082;17.080;2023-03-01T06:16:28;-2.85;77.54
69281;SHT31;56392;51.082;17.080;2023-03-01T06:21:51;-2.81;77.76
69281;SHT31;56392;51.082;17.080;2023-03-01T06:27:14;-2.74;77.94
69281;SHT31;56392;51.082;17.080;2023-03-01T06:32:39;-2.66;78.25
69281;SHT31;56392;51.082;17.080;2023-03-01T06:38:04;-2.57;78.66
69281;SHT31;56392;51.082;17.080;2023-03-01T06:43:27;-2.40;78.78
69281;SHT31;56392;51.082;17.080;2023-03-01T06:48:52;-2.30;79.13
69281;SHT31;56392;51.082;17.080;2023-03-01T06:54:15;-2.06;79.58
69281;SHT31;56392;51.082;17.080;2023-03-01T06:59:39;-1.78;79.24
69281;SHT31;56392;51.082;17.080;2023-03-01T07:05:05;-1.55;78.55
69281;SHT31;56392;51.082;17.080;2023-03-01T07:10:29;-1.32;78.05
69281;SHT31;56392;51.082;17.080;2023-03-01T07:15:52;-1.19;77.64
69281;SHT31;56392;51.082;17.080;2023-03-01T07:21:17;-1.04;77.36
69281;SHT31;56392;51.082;17.080;2023-03-01T07:26:40;-0.89;77.79
69281;SHT31;56392;51.082;17.080;2023-03-01T07:32:04;-0.71;77.09
69281;SHT31;56392;51.082;17.080;2023-03-01T07:37:29;-0.37;76.65
69281;SHT31;56392;51.082;17.080;2023-03-01T07:42:55;-0.10;75.90
69281;SHT31;56392;51.082;17.080;2023-03-01T07:48:18;0.21;75.74
69281;SHT31;56392;51.082;17.080;2023-03-01T07:53:45;0.73;74.96
69281;SHT31;56392;51.082;17.080;2023-03-01T07:59:08;1.07;73.95
69281;SHT31;56392;51.082;17.080;2023-03-01T08:04:32;1.40;72.22
69281;SHT31;56392;51.082;17.080;2023-03-01T08:09:57;1.37;71.92
69281;SHT31;56392;51.082;17.080;2023-03-01T08:15:20;1.91;70.98
69281;SHT31;56392;51.082;17.080;2023-03-01T08:20:43;2.37;69.42
69281;SHT31;56392;51.082;17.080;2023-03-01T08:26:12;2.44;68.31
69281;SHT31;56392;51.082;17.080;2023-03-01T08:31:39;2.61;67.88
69281;SHT31;56392;51.082;17.080;2023-03-01T08:37:02;2.49;66.69
69281;SHT31;56392;51.082;17.080;2023-03-01T08:42:27;2.72;66.13
69281;SHT31;56392;51.082;17.080;2023-03-01T08:47:52;2.88;64.38
69281;SHT31;56392;51.082;17.080;2023-03-01T08:53:15;2.84;62.95
69281;SHT31;56392;51.082;17.080;2023-03-01T08:58:39;2.84;62.77
69281;SHT31;56392;51.082;17.080;2023-03-01T09:04:03;2.80;63.94
69281;SHT31;56392;51.082;17.080;2023-03-01T09:09:26;2.84;63.38
69281;SHT31;56392;51.082;17.080;2023-03-01T09:14:50;2.88;61.75
69281;SHT31;56392;51.082;17.080;2023-03-01T09:20:14;3.01;62.62
69281;SHT31;56392;51.082;17.080;2023-03-01T09:25:37;3.09;62.96
69281;SHT31;56392;51.082;17.080;2023-03-01T09:31:02;3.35;61.97
69281;SHT31;56392;51.082;17.080;2023-03-01T09:36:27;3.60;59.93
69281;SHT31;56392;51.082;17.080;2023-03-01T09:41:57;3.46;60.25
69281;SHT31;56392;51.082;17.080;2023-03-01T09:47:27;3.58;60.37
69281;SHT31;56392;51.082;17.080;2023-03-01T09:52:55;3.96;60.26
69281;SHT31;56392;51.082;17.080;2023-03-01T09:58:41;4.03;58.57
69281;SHT31;56392;51.082;17.080;2023-03-01T10:04:28;4.07;60.05
69281;SHT31;56392;51.082;17.080;2023-03-01T10:09:51;4.40;57.81
69281;SHT31;56392;51.082;17.080;2023-03-01T10:15:18;4.64;56.52
69281;SHT31;56392;51.082;17.080;2023-03-01T10:20:47;4.47;55.38
69281;SHT31;56392;51.082;17.080;2023-03-01T10:26:25;4.35;57.07
69281;SHT31;56392;51.082;17.080;2023-03-01T10:31:54;4.52;56.77
69281;SHT31;56392;51.082;17.080;2023-03-01T10:37:20;4.59;55.98
69281;SHT31;56392;51.082;17.080;2023-03-01T10:42:47;4.52;56.03
69281;SHT31;56392;51.082;17.080;2023-03-01T10:48:14;4.57;55.59
69281;SHT31;56392;51.082;17.080;2023-03-01T10:53:41;4.45;53.12
69281;SHT31;56392;51.082;17.080;2023-03-01T10:59:09;4.45;53.50
69281;SHT31;56392;51.082;17.080;2023-03-01T11:04:57;4.61;53.33
69281;SHT31;56392;51.082;17.080;2023-03-01T11:10:24;4.66;55.17
69281;SHT31;56392;51.082;17.080;2023-03-01T11:15:59;4.76;54.54
69281;SHT31;56392;51.082;17.080;2023-03-01T11:21:23;4.86;54.63
69281;SHT31;56392;51.082;17.080;2023-03-01T11:26:52;4.80;54.02
69281;SHT31;56392;51.082;17.080;2023-03-01T11:32:17;4.88;54.08
69281;SHT31;56392;51.082;17.080;2023-03-01T11:37:50;4.88;53.71
69281;SHT31;56392;51.082;17.080;2023-03-01T11:43:25;4.85;52.85
69281;SHT31;56392;51.082;17.080;2023-03-01T11:48:59;4.76;52.46
69281;SHT31;56392;51.082;17.080;2023-03-01T11:54:41;4.72;51.39
69281;SHT31;56392;51.082;17.080;2023-03-01T12:00:19;4.79;51.46
69281;SHT31;56392;51.082;17.080;2023-03-01T12:06:12;4.82;49.44
69281;SHT31;56392;51.082;17.080;2023-03-01T12:11:57;4.88;50.49
69281;SHT31;56392;51.082;17.080;2023-03-01T12:17:48;4.97;49.76
69281;SHT31;56392;51.082;17.080;2023-03-01T12:23:30;5.03;51.51
69281;SHT31;56392;51.082;17.080;2023-03-01T12:29:06;5.12;51.88
69281;SHT31;56392;51.082;17.080;2023-03-01T12:34:54;5.06;50.12
69281;SHT31;56392;51.082;17.080;2023-03-01T12:46:28;5.09;46.26
69281;SHT31;56392;51.082;17.080;2023-03-01T12:51:59;5.10;41.60
69281;SHT31;56392;51.082;17.080;2023-03-01T12:57:30;5.10;45.28
69281;SHT31;56392;51.082;17.080;2023-03-01T13:03:02;5.12;40.81
69281;SHT31;56392;51.082;17.080;2023-03-01T13:08:39;5.23;44.55
69281;SHT31;56392;51.082;17.080;2023-03-01T13:14:35;5.30;44.61
69281;SHT31;56392;51.082;17.080;2023-03-01T13:19:59;5.33;44.95
69281;SHT31;56392;51.082;17.080;2023-03-01T13:25:24;5.31;44.61
69281;SHT31;56392;51.082;17.080;2023-03-01T13:30:48;5.31;44.75
69281;SHT31;56392;51.082;17.080;2023-03-01T13:36:45;5.37;43.47
69281;SHT31;56392;51.082;17.080;2023-03-01T13:42:37;5.38;44.09
69281;SHT31;56392;51.082;17.080;2023-03-01T13:48:03;5.38;44.07
69281;SHT31;56392;51.082;17.080;2023-03-01T13:53:34;5.40;44.51
69281;SHT31;56392;51.082;17.080;2023-03-01T13:59:04;5.44;46.26
69281;SHT31;56392;51.082;17.080;2023-03-01T14:04:29;5.46;44.67
69281;SHT31;56392;51.082;17.080;2023-03-01T14:09:55;5.46;45.16
69281;SHT31;56392;51.082;17.080;2023-03-01T14:15:26;5.48;46.14
69281;SHT31;56392;51.082;17.080;2023-03-01T14:20:51;5.51;47.26
69281;SHT31;56392;51.082;17.080;2023-03-01T14:26:21;5.52;46.46
69281;SHT31;56392;51.082;17.080;2023-03-01T14:31:46;5.50;48.07
69281;SHT31;56392;51.082;17.080;2023-03-01T14:37:20;5.55;47.94
69281;SHT31;56392;51.082;17.080;2023-03-01T14:42:44;5.54;45.46
69281;SHT31;56392;51.082;17.080;2023-03-01T14:48:10;5.57;46.35
69281;SHT31;56392;51.082;17.080;2023-03-01T14:53:34;5.55;48.81
69281;SHT31;56392;51.082;17.080;2023-03-01T14:58:58;5.58;47.20
69281;SHT31;56392;51.082;17.080;2023-03-01T15:04:24;5.61;46.85
69281;SHT31;56392;51.082;17.080;2023-03-01T15:09:48;5.62;48.31
69281;SHT31;56392;51.082;17.080;2023-03-01T15:15:32;5.43;51.19
69281;SHT31;56392;51.082;17.080;2023-03-01T15:21:05;5.37;51.26
69281;SHT31;56392;51.082;17.080;2023-03-01T15:26:33;5.40;49.41
69281;SHT31;56392;51.082;17.080;2023-03-01T15:32:00;5.44;49.34
69281;SHT31;56392;51.082;17.080;2023-03-01T15:37:43;5.46;49.57
69281;SHT31;56392;51.082;17.080;2023-03-01T15:43:42;5.37;50.57
69281;SHT31;56392;51.082;17.080;2023-03-01T15:49:23;5.26;52.10
69281;SHT31;56392;51.082;17.080;2023-03-01T15:54:50;5.29;49.93
69281;SHT31;56392;51.082;17.080;2023-03-01T16:00:14;5.34;48.74
69281;SHT31;56392;51.082;17.080;2023-03-01T16:05:39;5.29;51.26
69281;SHT31;56392;51.082;17.080;2023-03-01T16:11:04;4.99;52.80
69281;SHT31;56392;51.082;17.080;2023-03-01T16:16:27;4.95;52.38
69281;SHT31;56392;51.082;17.080;2023-03-01T16:21:51;4.78;53.32
69281;SHT31;56392;51.082;17.080;2023-03-01T16:27:17;4.57;53.46
69281;SHT31;56392;51.082;17.080;2023-03-01T16:32:44;4.37;54.77
69281;SHT31;56392;51.082;17.080;2023-03-01T16:38:07;4.20;55.81
69281;SHT31;56392;51.082;17.080;2023-03-01T16:43:33;4.00;55.05
69281;SHT31;56392;51.082;17.080;2023-03-01T16:48:57;3.85;56.39
69281;SHT31;56392;51.082;17.080;2023-03-01T16:54:21;3.67;56.75
69281;SHT31;56392;51.082;17.080;2023-03-01T16:59:52;3.49;59.78
69281;SHT31;56392;51.082;17.080;2023-03-01T17:05:15;3.26;59.61
69281;SHT31;56392;51.082;17.080;2023-03-01T17:10:39;3.07;60.34
69281;SHT31;56392;51.082;17.080;2023-03-01T17:16:07;2.95;60.68
69281;SHT31;56392;51.082;17.080;2023-03-01T17:21:31;2.90;61.55
69281;SHT31;56392;51.082;17.080;2023-03-01T17:26:55;2.85;61.86
69281;SHT31;56392;51.082;17.080;2023-03-01T17:32:19;2.70;62.55
69281;SHT31;56392;51.082;17.080;2023-03-01T17:37:43;2.54;63.32
69281;SHT31;56392;51.082;17.080;2023-03-01T17:43:07;2.43;64.44
69281;SHT31;56392;51.082;17.080;2023-03-01T17:48:35;2.19;65.77
69281;SHT31;56392;51.082;17.080;2023-03-01T17:54:02;2.06;65.92
69281;SHT31;56392;51.082;17.080;2023-03-01T17:59:25;1.92;65.92
69281;SHT31;56392;51.082;17.080;2023-03-01T18:04:56;1.89;66.20
69281;SHT31;56392;51.082;17.080;2023-03-01T18:10:19;1.81;66.67
69281;SHT31;56392;51.082;17.080;2023-03-01T18:15:43;1.75;67.18
69281;SHT31;56392;51.082;17.080;2023-03-01T18:21:08;1.74;67.46
69281;SHT31;56392;51.082;17.080;2023-03-01T18:26:31;1.72;67.55
69281;SHT31;56392;51.082;17.080;2023-03-01T18:31:55;1.67;67.79
69281;SHT31;56392;51.082;17.080;2023-03-01T18:37:19;1.65;67.97
69281;SHT31;56392;51.082;17.080;2023-03-01T18:42:43;1.57;68.27
69281;SHT31;56392;51.082;17.080;2023-03-01T18:48:07;1.53;68.44
69281;SHT31;56392;51.082;17.080;2023-03-01T18:53:31;1.47;68.67
69281;SHT31;56392;51.082;17.080;2023-03-01T18:58:54;1.37;68.28
69281;SHT31;56392;51.082;17.080;2023-03-01T19:04:17;1.31;68.75
69281;SHT31;56392;51.082;17.080;2023-03-01T19:09:42;1.15;69.47
69281;SHT31;56392;51.082;17.080;2023-03-01T19:15:06;1.00;69.56
69281;SHT31;56392;51.082;17.080;2023-03-01T19:20:30;0.99;69.81
69281;SHT31;56392;51.082;17.080;2023-03-01T19:25:59;0.86;69.97
69281;SHT31;56392;51.082;17.080;2023-03-01T19:31:24;0.81;70.08
69281;SHT31;56392;51.082;17.080;2023-03-01T19:36:49;0.81;69.74
69281;SHT31;56392;51.082;17.080;2023-03-01T19:42:13;0.75;70.37
69281;SHT31;56392;51.082;17.080;2023-03-01T19:47:36;0.73;70.40
69281;SHT31;56392;51.082;17.080;2023-03-01T19:53:00;0.69;70.80
69281;SHT31;56392;51.082;17.080;2023-03-01T19:58:25;0.66;71.12
69281;SHT31;56392;51.082;17.080;2023-03-01T20:03:50;0.61;70.69
69281;SHT31;56392;51.082;17.080;2023-03-01T20:09:13;0.58;71.10
69281;SHT31;56392;51.082;17.080;2023-03-01T20:14:39;0.52;70.67
69281;SHT31;56392;51.082;17.080;2023-03-01T20:20:03;0.54;71.09
69281;SHT31;56392;51.082;17.080;2023-03-01T20:25:26;0.40;71.40
69281;SHT31;56392;51.082;17.080;2023-03-01T20:30:51;0.32;71.16
69281;SHT31;56392;51.082;17.080;2023-03-01T20:36:14;0.27;71.22
69281;SHT31;56392;51.082;17.080;2023-03-01T20:41:38;0.20;72.11
69281;SHT31;56392;51.082;17.080;2023-03-01T20:47:03;0.20;72.05
69281;SHT31;56392;51.082;17.080;2023-03-01T20:52:26;0.13;72.60
69281;SHT31;56392;51.082;17.080;2023-03-01T20:57:49;0.14;72.48
69281;SHT31;56392;51.082;17.080;2023-03-01T21:03:16;0.15;71.87
69281;SHT31;56392;51.082;17.080;2023-03-01T21:08:40;0.11;71.88
69281;SHT31;56392;51.082;17.080;2023-03-01T21:14:03;0.04;71.36
69281;SHT31;56392;51.082;17.080;2023-03-01T21:19:28;-0.10;71.55
69281;SHT31;56392;51.082;17.080;2023-03-01T21:24:51;-0.20;72.39
69281;SHT31;56392;51.082;17.080;2023-03-01T21:30:15;-0.20;71.65
69281;SHT31;56392;51.082;17.080;2023-03-01T21:35:39;-0.20;71.83
69281;SHT31;56392;51.082;17.080;2023-03-01T21:41:04;-0.27;72.51
69281;SHT31;56392;51.082;17.080;2023-03-01T21:46:29;-0.34;72.23
69281;SHT31;56392;51.082;17.080;2023-03-01T21:51:54;-0.31;71.83
69281;SHT31;56392;51.082;17.080;2023-03-01T21:57:17;-0.38;72.15
69281;SHT31;56392;51.082;17.080;2023-03-01T22:02:40;-0.47;72.68
69281;SHT31;56392;51.082;17.080;2023-03-01T22:08:05;-0.57;72.81
69281;SHT31;56392;51.082;17.080;2023-03-01T22:13:28;-0.64;73.03
69281;SHT31;56392;51.082;17.080;2023-03-01T22:18:52;-0.64;72.78
69281;SHT31;56392;51.082;17.080;2023-03-01T22:24:17;-0.65;73.39
69281;SHT31;56392;51.082;17.080;2023-03-01T22:29:41;-0.71;72.97
69281;SHT31;56392;51.082;17.080;2023-03-01T22:35:05;-0.81;73.44
69281;SHT31;56392;51.082;17.080;2023-03-01T22:40:29;-0.83;73.81
69281;SHT31;56392;51.082;17.080;2023-03-01T22:45:52;-0.79;73.66
69281;SHT31;56392;51.082;17.080;2023-03-01T22:51:19;-0.85;73.71
69281;SHT31;56392;51.082;17.080;2023-03-01T22:56:43;-0.86;74.06
69281;SHT31;56392;51.082;17.080;2023-03-01T23:02:07;-0.89;74.11
69281;SHT31;56392;51.082;17.080;2023-03-01T23:07:30;-0.95;74.22
69281;SHT31;56392;51.082;17.080;2023-03-01T23:12:54;-0.97;74.11
69281;SHT31;56392;51.082;17.080;2023-03-01T23:18:18;-0.97;74.03
69281;SHT31;56392;51.082;17.080;2023-03-01T23:23:41;-1.02;74.20
69281;SHT31;56392;51.082;17.080;2023-03-01T23:29:09;-0.97;74.05
69281;SHT31;56392;51.082;17.080;2023-03-01T23:34:32;-1.04;74.01
69281;SHT31;56392;51.082;17.080;2023-03-01T23:39:55;-1.07;74.05
69281;SHT31;56392;51.082;17.080;2023-03-01T23:45:20;-1.16;74.44
69281;SHT31;56392;51.082;17.080;2023-03-01T23:50:43;-1.19;74.52
69281;SHT31;56392;51.082;17.080;2023-03-01T23:56:06;-1.21;74.40
